createdAt,value
2023-08-12T00:01:38.968Z,21.05
2023-08-12T00:06:41.444Z,17.75
2023-08-12T00:11:43.689Z,21.27
2023-08-12T00:16:45.920Z,17.33
2023-08-12T00:21:48.356Z,8.43
2023-08-12T00:26:50.610Z,13.80
2023-08-12T00:31:52.811Z,12.30
2023-08-12T00:36:55.072Z,21.83
2023-08-12T00:41:58.514Z,27.95
2023-08-12T00:47:00.894Z,17.90
2023-08-12T00:52:03.243Z,19.02
2023-08-12T00:57:07.058Z,15.70
2023-08-12T01:02:11.856Z,24.25
2023-08-12T01:07:14.509Z,15.20
2023-08-12T01:12:35.159Z,28.13
2023-08-12T01:17:42.482Z,24.27
2023-08-12T01:22:50.092Z,14.48
2023-08-12T01:27:52.419Z,19.63
2023-08-12T01:33:09.540Z,26.77
2023-08-12T01:38:12.702Z,18.00
2023-08-12T01:43:16.607Z,29.23
2023-08-12T01:48:21.137Z,30.33
2023-08-12T01:53:23.420Z,26.38
2023-08-12T01:58:27.441Z,29.95
2023-08-12T02:03:29.674Z,22.35
2023-08-12T02:08:33.038Z,21.98
2023-08-12T02:13:35.751Z,28.52
2023-08-12T02:18:46.443Z,29.42
2023-08-12T02:23:57.713Z,25.63
2023-08-12T02:29:07.222Z,19.55
2023-08-12T02:34:15.364Z,24.58
2023-08-12T02:39:17.879Z,22.63
2023-08-12T02:54:58.437Z,20.27
2023-08-12T03:00:07.996Z,23.77
2023-08-12T03:05:13.719Z,21.10
2023-08-12T03:10:51.111Z,25.35
2023-08-12T03:16:20.884Z,27.05
2023-08-12T03:21:25.317Z,36.22
2023-08-12T03:26:30.403Z,27.80
2023-08-12T03:31:37.362Z,16.52
2023-08-12T03:36:41.888Z,17.40
2023-08-12T03:41:46.902Z,28.27
2023-08-12T03:46:49.922Z,29.55
2023-08-12T03:51:52.463Z,28.52
2023-08-12T03:56:54.632Z,19.92
2023-08-12T04:01:58.553Z,27.17
2023-08-12T04:07:01.287Z,14.38
2023-08-12T04:12:03.778Z,15.93
2023-08-12T04:17:06.050Z,23.10
2023-08-12T04:22:08.269Z,19.70
2023-08-12T04:27:10.752Z,27.08
2023-08-12T04:32:13.260Z,24.20
2023-08-12T04:37:16.944Z,33.35
2023-08-12T04:42:19.968Z,20.90
2023-08-12T04:47:22.513Z,22.92
2023-08-12T04:52:24.784Z,23.15
2023-08-12T04:57:27.143Z,19.95
2023-08-12T05:02:29.490Z,15.10
2023-08-12T05:07:32.556Z,22.95
2023-08-12T05:12:34.973Z,22.30
2023-08-12T05:17:37.513Z,28.42
2023-08-12T05:22:40.437Z,28.55
2023-08-12T05:27:42.716Z,36.25
2023-08-12T05:32:44.871Z,20.98
2023-08-12T05:37:47.155Z,19.13
2023-08-12T05:42:49.330Z,19.05
2023-08-12T05:47:51.564Z,37.15
2023-08-12T05:52:53.741Z,27.38
2023-08-12T05:57:55.921Z,22.20
2023-08-12T06:02:58.145Z,23.70
2023-08-12T06:08:00.288Z,17.45
2023-08-12T06:13:02.477Z,17.52
2023-08-12T06:18:04.909Z,24.63
2023-08-12T06:23:07.113Z,21.08
2023-08-12T06:28:10.335Z,19.52
2023-08-12T06:33:12.617Z,18.33
2023-08-12T06:38:15.180Z,25.15
2023-08-12T06:43:17.616Z,15.07
2023-08-12T06:48:19.772Z,16.85
2023-08-12T06:53:21.974Z,16.63
2023-08-12T06:58:24.178Z,23.08
2023-08-12T07:03:26.835Z,28.83
2023-08-12T07:08:29.002Z,19.42
2023-08-12T07:13:31.161Z,21.30
2023-08-12T07:18:34.412Z,21.77
2023-08-12T07:23:36.578Z,31.60
2023-08-12T07:28:39.282Z,24.70
2023-08-12T07:33:41.473Z,19.52
2023-08-12T07:38:43.624Z,33.97
2023-08-12T07:43:45.756Z,15.80
2023-08-12T07:48:48.003Z,24.55
2023-08-12T07:53:51.745Z,20.13
2023-08-12T07:58:59.002Z,23.42
2023-08-12T08:04:01.150Z,17.65
2023-08-12T08:09:04.877Z,18.42
2023-08-12T08:14:07.070Z,14.85
2023-08-12T08:19:13.355Z,18.17
2023-08-12T08:24:15.808Z,24.92
2023-08-12T08:29:18.031Z,21.05
2023-08-12T08:34:20.543Z,21.73
2023-08-12T08:39:22.752Z,22.02
2023-08-12T08:44:28.392Z,15.20
2023-08-12T08:49:32.406Z,25.48
2023-08-12T08:54:36.727Z,34.05
2023-08-12T08:59:38.882Z,27.73
2023-08-12T09:04:41.225Z,21.52
2023-08-12T09:09:48.800Z,20.88
2023-08-12T09:14:51.385Z,15.68
2023-08-12T09:19:53.620Z,25.40
2023-08-12T09:24:59.430Z,20.80
2023-08-12T09:30:04.705Z,15.85
2023-08-12T09:35:17.246Z,16.98
2023-08-12T09:40:19.405Z,18.58
2023-08-12T09:45:25.374Z,20.80
2023-08-12T09:50:28.868Z,17.95
2023-08-12T09:55:35.757Z,30.55
2023-08-12T10:00:38.057Z,18.75
2023-08-12T10:05:41.242Z,16.33
2023-08-12T10:10:44.952Z,21.98
2023-08-12T10:15:50.906Z,13.65
2023-08-12T10:20:54.085Z,19.95
2023-08-12T10:25:56.424Z,17.73
2023-08-12T10:30:59.318Z,13.70
2023-08-12T10:36:01.600Z,22.90
2023-08-12T10:41:21.141Z,16.00
2023-08-12T10:46:36.841Z,12.48
2023-08-12T10:51:52.408Z,11.30
2023-08-12T10:57:04.048Z,19.95
2023-08-12T11:02:22.865Z,12.25
2023-08-12T11:07:40.746Z,14.70
2023-08-12T11:12:57.501Z,13.73
2023-08-12T11:17:59.920Z,13.90
2023-08-12T11:23:03.427Z,14.23
2023-08-12T11:28:06.794Z,17.85
2023-08-12T11:33:09.223Z,16.20
2023-08-12T11:38:11.474Z,12.70
2023-08-12T11:43:22.900Z,15.57
2023-08-12T11:48:29.780Z,11.23
2023-08-12T11:53:32.410Z,11.20
2023-08-12T11:58:51.674Z,14.98
2023-08-12T12:03:56.091Z,12.50
2023-08-12T12:09:03.276Z,11.40
2023-08-12T12:14:06.618Z,16.20
2023-08-12T12:19:24.450Z,12.10
2023-08-12T12:24:31.088Z,13.82
2023-08-12T12:29:34.798Z,11.45
2023-08-12T12:34:36.979Z,11.10
2023-08-12T12:39:39.099Z,8.50
2023-08-12T12:44:41.265Z,11.65
2023-08-12T12:49:43.448Z,9.00
2023-08-12T12:54:45.588Z,13.68
2023-08-12T12:59:47.824Z,13.73
2023-08-12T13:04:51.657Z,6.80
2023-08-12T13:09:53.765Z,7.57
2023-08-12T13:14:56.016Z,7.20
2023-08-12T13:19:58.531Z,7.88
2023-08-12T13:25:00.700Z,7.60
2023-08-12T13:30:05.635Z,8.88
2023-08-12T13:35:09.628Z,8.38
2023-08-12T13:40:21.186Z,7.65
2023-08-12T13:45:26.700Z,10.13
2023-08-12T13:50:34.298Z,11.02
2023-08-12T13:55:38.943Z,6.22
2023-08-12T14:00:41.656Z,10.73
2023-08-12T14:05:45.248Z,11.25
2023-08-12T14:10:48.709Z,21.00
2023-08-12T14:15:50.864Z,6.45
2023-08-12T14:20:53.064Z,10.05
2023-08-12T14:25:55.264Z,11.02
2023-08-12T14:30:57.529Z,8.32
2023-08-12T14:36:00.891Z,19.38
2023-08-12T14:41:03.593Z,6.50
2023-08-12T14:46:08.380Z,13.43
2023-08-12T14:51:10.578Z,15.10
2023-08-12T14:56:12.780Z,8.73
2023-08-12T15:01:15.028Z,12.63
2023-08-12T15:06:17.851Z,13.05
2023-08-12T15:11:20.036Z,10.77
2023-08-12T15:16:22.199Z,10.20
2023-08-12T15:21:24.343Z,9.25
2023-08-12T15:26:26.539Z,7.30
2023-08-12T15:31:28.931Z,9.32
2023-08-12T15:36:32.312Z,7.60
2023-08-12T15:41:34.702Z,12.00
2023-08-12T15:46:37.417Z,11.05
2023-08-12T15:51:40.615Z,11.45
2023-08-12T15:56:42.813Z,5.32
2023-08-12T16:01:45.003Z,7.78
2023-08-12T16:06:48.208Z,6.07
2023-08-12T16:11:50.518Z,5.72
2023-08-12T16:16:52.785Z,5.55
2023-08-12T16:21:54.912Z,5.72
2023-08-12T16:26:57.288Z,4.05
2023-08-12T16:31:59.613Z,8.77
2023-08-12T16:37:19.674Z,10.55
2023-08-12T16:42:23.319Z,3.08
2023-08-12T16:47:25.886Z,9.98
2023-08-12T16:52:28.067Z,7.15
2023-08-12T16:57:30.289Z,4.32
2023-08-12T17:02:32.764Z,6.72
2023-08-12T17:07:35.143Z,11.23
2023-08-12T17:12:37.313Z,6.22
2023-08-12T17:17:39.699Z,10.25
2023-08-12T17:22:41.852Z,8.18
2023-08-12T17:27:43.988Z,10.68
2023-08-12T17:32:46.158Z,14.98
2023-08-12T17:37:48.415Z,11.38
2023-08-12T17:42:50.834Z,13.07
2023-08-12T17:48:04.018Z,13.88
2023-08-12T17:53:06.254Z,18.83
2023-08-12T17:58:08.400Z,8.85
2023-08-12T18:03:10.680Z,19.65
2023-08-12T18:08:13.166Z,6.72
2023-08-12T18:13:15.480Z,14.00
2023-08-12T18:18:20.600Z,9.38
2023-08-12T18:23:22.785Z,9.82
2023-08-12T18:28:24.958Z,9.93
2023-08-12T18:33:27.441Z,14.18
2023-08-12T18:38:30.972Z,12.13
2023-08-12T18:43:33.075Z,11.93
2023-08-12T18:48:35.355Z,11.38
2023-08-12T18:53:40.195Z,10.57
2023-08-12T18:58:44.418Z,8.32
2023-08-12T19:03:46.654Z,12.50
2023-08-12T19:08:48.924Z,10.93
2023-08-12T19:13:51.025Z,2.97
2023-08-12T19:18:53.154Z,5.40
2023-08-12T19:23:55.248Z,6.63
2023-08-12T19:28:57.492Z,5.47
2023-08-12T19:33:59.659Z,3.03
2023-08-12T19:39:02.000Z,4.32
2023-08-12T19:44:06.202Z,7.22
2023-08-12T19:49:08.510Z,4.88
2023-08-12T19:54:10.982Z,16.75
2023-08-12T19:59:13.693Z,9.38
2023-08-12T20:04:15.875Z,6.20
2023-08-12T20:09:18.300Z,4.60
2023-08-12T20:14:20.462Z,8.57
2023-08-12T20:19:22.570Z,5.35
2023-08-12T20:24:24.787Z,9.65
2023-08-12T20:29:26.964Z,5.07
2023-08-12T20:34:29.081Z,5.85
2023-08-12T20:39:31.300Z,5.35
2023-08-12T20:44:33.667Z,7.45
2023-08-12T20:49:35.813Z,10.43
2023-08-12T20:54:37.921Z,5.25
2023-08-12T20:59:40.052Z,12.25
2023-08-12T21:04:42.730Z,6.18
2023-08-12T21:09:44.899Z,10.75
2023-08-12T21:14:47.056Z,9.68
2023-08-12T21:19:49.151Z,9.63
2023-08-12T21:24:52.512Z,10.80
2023-08-12T21:29:54.882Z,15.50
2023-08-12T21:34:57.022Z,12.70
2023-08-12T21:39:59.251Z,9.15
2023-08-12T21:45:01.365Z,6.20
2023-08-12T21:50:04.042Z,9.88
2023-08-12T21:55:06.677Z,6.80
2023-08-12T22:00:13.046Z,5.22
2023-08-12T22:05:15.478Z,6.68
2023-08-12T22:10:17.777Z,5.97
2023-08-12T22:15:19.947Z,4.63
2023-08-12T22:20:22.231Z,10.27
2023-08-12T22:25:24.411Z,7.95
2023-08-12T22:30:26.654Z,9.57
2023-08-12T22:35:28.872Z,5.32
2023-08-12T22:40:30.989Z,5.70
2023-08-12T22:45:39.935Z,8.70
2023-08-12T22:50:42.094Z,23.60
2023-08-12T22:55:45.250Z,4.65
2023-08-12T23:00:47.496Z,8.70
2023-08-12T23:05:49.757Z,6.25
2023-08-12T23:10:51.990Z,3.92
2023-08-12T23:15:54.108Z,5.38
2023-08-12T23:20:57.391Z,5.10
2023-08-12T23:25:59.510Z,8.45
2023-08-12T23:31:01.905Z,5.63
2023-08-12T23:36:04.224Z,6.10
2023-08-12T23:41:06.352Z,4.38
2023-08-12T23:46:08.504Z,14.57
2023-08-12T23:51:10.754Z,7.80
2023-08-12T23:56:12.888Z,12.00
